Time,TemperatureF,DewpointF,PressureIn,WindDirection,WindDirectionDegrees,WindSpeedMPH,WindSpeedGustMPH,Humidity,HourlyPrecipIn,Conditions,Clouds,dailyrainin,SoftwareType,DateUTC
2013-03-14 00:00:00,58.0,32.5,29.99,ESE,112,0.0,0.0,38,0.00,,,0.00,Weather View 32 v70,2013-03-14 07:00:00,
2013-03-14 00:30:00,58.0,31.1,29.98,ESE,112,0.0,0.0,36,0.00,,,0.00,Weather View 32 v70,2013-03-14 07:30:00,
2013-03-14 01:00:00,56.0,-43.5,29.98,ESE,112,0.0,0.0,1,0.00,,,0.00,Weather View 32 v70,2013-03-14 08:00:00,
2013-03-14 01:30:00,56.0,-43.5,29.97,ESE,112,0.0,0.0,1,0.00,,,0.00,Weather View 32 v70,2013-03-14 08:30:00,
2013-03-14 02:00:00,55.0,-44.1,29.97,SSE,157,0.0,0.0,1,0.00,,,0.00,Weather View 32 v70,2013-03-14 09:00:00,
2013-03-14 02:30:00,54.0,-44.7,29.96,SSE,157,0.0,0.0,1,0.00,,,0.00,Weather View 32 v70,2013-03-14 09:30:00,
2013-03-14 03:00:00,55.0,13.4,29.95,SSE,157,0.0,0.0,19,0.00,,,0.00,Weather View 32 v70,2013-03-14 10:00:00,
2013-03-14 03:30:00,55.0,18.8,29.95,SSE,157,0.0,0.0,24,0.00,,,0.00,Weather View 32 v70,2013-03-14 10:30:00,
2013-03-14 04:00:00,55.0,35.6,29.95,SSE,157,1.0,4.0,48,0.00,,,0.00,Weather View 32 v70,2013-03-14 11:00:00,
2013-03-14 04:30:00,54.0,36.2,29.95,SSE,157,1.0,5.0,51,0.00,,,0.00,Weather View 32 v70,2013-03-14 11:30:00,
2013-03-14 05:00:00,55.0,41.8,29.96,South,180,0.0,5.0,61,0.00,,,0.00,Weather View 32 v70,2013-03-14 12:00:00,
2013-03-14 05:30:00,53.0,35.8,29.96,South,180,0.0,2.0,52,0.00,,,0.00,Weather View 32 v70,2013-03-14 12:30:00,
2013-03-14 06:00:00,50.0,-47.2,29.95,SSE,157,2.0,3.0,1,0.00,,,0.00,Weather View 32 v70,2013-03-14 13:00:00,
2013-03-14 06:30:00,52.0,14.3,29.95,SSE,157,0.0,4.0,22,0.00,,,0.00,Weather View 32 v70,2013-03-14 13:30:00,
2013-03-14 07:00:00,52.0,40.2,29.95,ESE,112,0.0,5.0,64,0.00,,,0.00,Weather View 32 v70,2013-03-14 14:00:00,
2013-03-14 07:30:00,53.0,44.2,29.95,ESE,112,0.0,5.0,72,0.00,,,0.00,Weather View 32 v70,2013-03-14 14:30:00,
2013-03-14 08:00:00,55.0,48.3,29.97,East,90,0.0,1.0,78,0.00,,,0.00,Weather View 32 v70,2013-03-14 15:00:00,
2013-03-14 08:30:00,58.0,52.9,30.00,ESE,112,0.0,1.0,83,0.00,,,0.00,Weather View 32 v70,2013-03-14 15:30:00,
2013-03-14 09:00:00,62.0,56.8,30.03,ESE,112,0.0,1.0,83,0.00,,,0.00,Weather View 32 v70,2013-03-14 16:00:00,
2013-03-14 09:30:00,67.0,59.2,30.05,SE,135,1.0,3.0,76,0.00,,,0.00,Weather View 32 v70,2013-03-14 16:30:00,
2013-03-14 10:00:00,70.0,60.9,30.08,South,180,0.0,4.0,73,0.00,,,0.00,Weather View 32 v70,2013-03-14 17:00:00,
2013-03-14 10:30:00,75.0,62.8,30.09,SE,135,0.0,4.0,66,0.00,,,0.00,Weather View 32 v70,2013-03-14 17:30:00,
2013-03-14 11:00:00,78.0,60.5,30.10,SW,225,0.0,2.0,55,0.00,,,0.00,Weather View 32 v70,2013-03-14 18:00:00,
2013-03-14 11:30:00,78.0,58.9,30.11,SW,225,0.0,0.0,52,0.00,,,0.00,Weather View 32 v70,2013-03-14 18:30:00,
2013-03-14 12:00:00,80.0,60.2,30.11,WNW,292,0.0,0.0,51,0.00,,,0.00,Weather View 32 v70,2013-03-14 19:00:00,
2013-03-14 12:30:00,77.0,59.5,30.09,North,360,4.0,9.0,55,0.00,,,0.00,Weather View 32 v70,2013-03-14 19:30:00,
2013-03-14 13:00:00,78.0,58.9,30.08,WNW,292,10.0,10.0,52,0.00,,,0.00,Weather View 32 v70,2013-03-14 20:00:00,
2013-03-14 13:30:00,79.0,58.1,30.07,WNW,292,0.0,11.0,49,0.00,,,0.00,Weather View 32 v70,2013-03-14 20:30:00,
2013-03-14 14:00:00,79.0,55.2,30.07,WNW,292,0.0,11.0,44,0.00,,,0.00,Weather View 32 v70,2013-03-14 21:00:00,
2013-03-14 14:30:00,80.0,56.7,30.06,NW,315,7.0,10.0,45,0.00,,,0.00,Weather View 32 v70,2013-03-14 21:30:00,
2013-03-14 15:00:00,81.0,55.7,30.06,WNW,292,0.0,10.0,42,0.00,,,0.00,Weather View 32 v70,2013-03-14 22:00:00,
2013-03-14 15:30:00,84.0,56.3,30.06,WNW,292,0.0,10.0,39,0.00,,,0.00,Weather View 32 v70,2013-03-14 22:30:00,
2013-03-14 16:30:00,81.0,55.0,30.04,NW,315,6.0,10.0,41,0.00,,,0.00,Weather View 32 v70,2013-03-14 23:30:00,
2013-03-14 17:00:00,81.0,55.7,30.03,WNW,292,3.0,10.0,42,0.00,,,0.00,Weather View 32 v70,2013-03-15 00:00:00,
2013-03-14 17:30:00,80.0,54.1,30.02,WNW,292,4.0,9.0,41,0.00,,,0.00,Weather View 32 v70,2013-03-15 00:30:00,
2013-03-14 18:00:00,79.0,53.2,30.02,WNW,292,3.0,9.0,41,0.00,,,0.00,Weather View 32 v70,2013-03-15 01:00:00,
2013-03-14 18:30:00,77.0,54.0,30.01,NNW,337,5.0,9.0,45,0.00,,,0.00,Weather View 32 v70,2013-03-15 01:30:00,
2013-03-14 19:00:00,74.0,55.7,30.00,NNW,337,6.0,10.0,53,0.00,,,0.00,Weather View 32 v70,2013-03-15 02:00:00,
2013-03-14 20:00:00,71.0,53.0,29.98,NW,315,5.0,8.0,53,0.00,,,0.00,Weather View 32 v70,2013-03-15 03:00:00,
2013-03-14 20:30:00,69.0,52.1,29.98,NW,315,4.0,7.0,55,0.00,,,0.00,Weather View 32 v70,2013-03-15 03:30:00,
2013-03-14 22:00:00,65.0,57.2,29.97,West,270,0.0,0.0,76,0.00,,,0.00,Weather View 32 v70,2013-03-15 05:00:00,
2013-03-14 22:30:00,64.0,59.4,29.97,West,270,0.0,0.0,85,0.00,,,0.00,Weather View 32 v70,2013-03-15 05:30:00,
2013-03-14 23:00:00,63.0,58.4,29.97,West,270,0.0,0.0,85,0.00,,,0.00,Weather View 32 v70,2013-03-15 06:00:00,
2013-03-14 23:30:00,63.0,55.7,29.97,WSW,247,0.0,1.0,77,0.00,,,0.00,Weather View 32 v70,2013-03-15 06:30:00,